createdAt,value
2023-01-29T00:01:23.486Z,101832.75
2023-01-29T00:03:53.151Z,101835.00
2023-01-29T00:06:19.789Z,101824.88
2023-01-29T00:08:46.985Z,101816.19
2023-01-29T00:11:14.118Z,101818.09
2023-01-29T00:13:40.599Z,101815.50
2023-01-29T00:16:07.445Z,101813.19
2023-01-29T00:18:33.908Z,101817.41
2023-01-29T00:21:00.499Z,101809.78
2023-01-29T00:23:27.292Z,101810.78
2023-01-29T00:25:53.816Z,101801.28
2023-01-29T00:28:20.506Z,101801.16
2023-01-29T00:30:47.059Z,101804.75
2023-01-29T00:33:13.716Z,101806.69
2023-01-29T00:35:41.531Z,101802.38
2023-01-29T00:38:08.356Z,101793.72
2023-01-29T00:40:57.439Z,101796.22
2023-01-29T00:43:42.631Z,101803.94
2023-01-29T00:46:09.856Z,101805.25
2023-01-29T00:48:36.751Z,101806.13
2023-01-29T00:51:03.650Z,101808.91
2023-01-29T00:53:30.596Z,101809.00
2023-01-29T00:55:57.196Z,101810.56
2023-01-29T00:58:34.167Z,101802.59
2023-01-29T01:01:02.644Z,101800.69
2023-01-29T01:03:30.180Z,101805.03
2023-01-29T01:06:06.504Z,101804.75
2023-01-29T01:08:52.253Z,101798.88
2023-01-29T01:11:19.674Z,101801.38
2023-01-29T01:13:46.370Z,101798.72
2023-01-29T01:16:19.070Z,101799.19
2023-01-29T01:18:45.647Z,101810.06
2023-01-29T01:21:12.249Z,101803.66
2023-01-29T01:23:38.802Z,101811.47
2023-01-29T01:26:09.580Z,101808.47
2023-01-29T01:28:36.176Z,101802.31
2023-01-29T01:31:11.277Z,101796.50
2023-01-29T01:33:38.199Z,101792.44
2023-01-29T01:36:09.317Z,101798.44
2023-01-29T01:38:45.347Z,101782.31
2023-01-29T01:41:17.810Z,101790.25
2023-01-29T01:44:29.254Z,101788.47
2023-01-29T01:46:55.862Z,101781.19
2023-01-29T01:49:24.434Z,101781.06
2023-01-29T01:51:52.742Z,101769.50
2023-01-29T01:54:25.133Z,101767.41
2023-01-29T01:57:04.984Z,101765.88
2023-01-29T01:59:34.171Z,101766.47
2023-01-29T02:02:19.667Z,101764.09
2023-01-29T02:05:06.701Z,101767.56
2023-01-29T02:07:52.614Z,101762.13
2023-01-29T02:10:20.856Z,101764.22
2023-01-29T02:12:47.976Z,101757.09
2023-01-29T02:15:14.569Z,101754.44
2023-01-29T02:17:41.172Z,101770.34
2023-01-29T02:20:25.921Z,101767.72
2023-01-29T02:23:03.658Z,101763.09
2023-01-29T02:25:45.926Z,101768.00
2023-01-29T02:28:29.137Z,101773.44
2023-01-29T02:31:23.350Z,101777.88
2023-01-29T02:34:01.631Z,101783.19
2023-01-29T02:36:45.781Z,101783.75
2023-01-29T02:39:36.511Z,101770.38
2023-01-29T02:42:13.212Z,101771.16
2023-01-29T02:44:44.480Z,101777.88
2023-01-29T02:47:28.090Z,101772.47
2023-01-29T02:50:03.690Z,101783.44
2023-01-29T02:52:40.076Z,101784.03
2023-01-29T02:55:21.995Z,101794.50
2023-01-29T02:57:51.471Z,101791.53
2023-01-29T03:00:24.812Z,101779.69
2023-01-29T03:03:03.683Z,101797.41
2023-01-29T03:06:02.324Z,101790.63
2023-01-29T03:08:43.206Z,101785.00
2023-01-29T03:11:14.966Z,101788.22
2023-01-29T03:13:50.886Z,101796.19
2023-01-29T03:16:25.916Z,101783.75
2023-01-29T03:18:57.555Z,101780.97
2023-01-29T03:21:49.747Z,101787.13
2023-01-29T03:24:56.540Z,101782.66
2023-01-29T03:27:46.502Z,101768.47
2023-01-29T03:30:35.101Z,101763.16
2023-01-29T03:33:06.689Z,101769.00
2023-01-29T03:35:39.638Z,101759.56
2023-01-29T03:38:10.173Z,101763.16
2023-01-29T03:40:49.249Z,101758.19
2023-01-29T03:43:21.968Z,101768.91
2023-01-29T03:45:58.743Z,101762.19
2023-01-29T03:48:29.210Z,101768.91
2023-01-29T03:51:33.392Z,101761.13
2023-01-29T03:54:48.391Z,101757.25
2023-01-29T03:57:29.620Z,101749.00
2023-01-29T04:00:14.658Z,101747.88
2023-01-29T04:02:55.904Z,101754.88
2023-01-29T04:05:25.583Z,101745.25
2023-01-29T04:07:58.392Z,101745.09
2023-01-29T04:10:27.577Z,101738.97
2023-01-29T04:12:59.933Z,101737.97
2023-01-29T04:15:30.487Z,101733.69
2023-01-29T04:17:57.600Z,101720.69
2023-01-29T04:20:24.957Z,101725.00
2023-01-29T04:22:52.402Z,101723.09
2023-01-29T04:25:28.979Z,101715.81
2023-01-29T17:43:11.881Z,101077.66
2023-01-29T17:45:39.662Z,101075.28
2023-01-29T17:48:18.124Z,101069.47
2023-01-29T17:50:48.498Z,101079.28
2023-01-29T17:53:16.010Z,101079.94
2023-01-29T17:55:43.020Z,101066.63
2023-01-29T17:58:20.661Z,101073.28
2023-01-29T18:00:48.619Z,101078.63
2023-01-29T18:03:15.462Z,101087.78
2023-01-29T18:05:43.209Z,101080.75
2023-01-29T18:08:32.669Z,101087.75
2023-01-29T18:11:00.341Z,101084.97
2023-01-29T18:13:27.427Z,101077.31
2023-01-29T18:15:54.263Z,101082.31
2023-01-29T18:18:23.539Z,101071.50
2023-01-29T18:20:51.172Z,101064.84
2023-01-29T18:23:17.848Z,101066.00
2023-01-29T18:25:44.964Z,101060.69
2023-01-29T18:28:20.690Z,101067.31
2023-01-29T18:30:47.859Z,101066.34
2023-01-29T18:33:16.485Z,101057.69
2023-01-29T18:35:50.425Z,101048.03
2023-01-29T18:38:17.948Z,101025.25
2023-01-29T18:40:44.496Z,101026.41
2023-01-29T18:43:11.071Z,101028.44
2023-01-29T18:45:37.764Z,101025.59
2023-01-29T18:48:05.417Z,101019.44
2023-01-29T18:50:32.236Z,101013.13
2023-01-29T18:52:58.784Z,100993.59
2023-01-29T18:55:26.643Z,100985.34
2023-01-29T18:58:27.103Z,100984.69
2023-01-29T19:00:41.119Z,100975.50
2023-01-29T19:03:07.643Z,100976.22
2023-01-29T19:05:34.356Z,100978.06
2023-01-29T19:08:01.958Z,100971.91
2023-01-29T19:10:28.725Z,100958.25
2023-01-29T19:12:55.286Z,100949.63
2023-01-29T19:15:22.877Z,100956.94
2023-01-29T19:17:52.570Z,100954.63
2023-01-29T19:20:19.380Z,100962.94
2023-01-29T19:22:45.875Z,100972.88
2023-01-29T19:25:12.844Z,100966.09
2023-01-29T19:27:39.470Z,100975.88
2023-01-29T19:30:06.746Z,100962.56
2023-01-29T19:32:33.938Z,100966.88
2023-01-29T19:35:00.722Z,100961.91
2023-01-29T19:37:27.814Z,100967.91
2023-01-29T19:39:54.425Z,100959.91
2023-01-29T19:42:21.047Z,100957.91
2023-01-29T19:44:47.832Z,100946.47
2023-01-29T19:47:14.609Z,100936.97
2023-01-29T19:49:41.226Z,100921.53
2023-01-29T19:52:15.081Z,100928.31
2023-01-29T19:54:46.726Z,100909.06
2023-01-29T19:57:13.362Z,100909.38
2023-01-29T19:59:39.910Z,100907.25
2023-01-29T20:02:06.583Z,100877.28
2023-01-29T20:04:33.236Z,100889.13
2023-01-29T20:06:59.743Z,100863.84
2023-01-29T20:09:26.383Z,100860.19
2023-01-29T20:11:52.899Z,100858.53
2023-01-29T20:14:19.560Z,100852.88
2023-01-29T20:16:46.115Z,100870.19
2023-01-29T20:19:14.310Z,100840.94
2023-01-29T20:21:45.443Z,100852.53
2023-01-29T20:24:13.054Z,100829.78
2023-01-29T20:26:39.724Z,100827.97
2023-01-29T20:29:06.629Z,100809.31
2023-01-29T20:31:33.613Z,100807.31
2023-01-29T20:34:00.254Z,100785.72
2023-01-29T20:36:26.800Z,100788.22
2023-01-29T20:38:53.434Z,100806.00
2023-01-29T20:41:20.034Z,100800.34
2023-01-29T20:43:47.410Z,100801.66
2023-01-29T20:46:14.619Z,100800.66
2023-01-29T20:48:42.225Z,100797.84
2023-01-29T20:51:13.656Z,100799.16
2023-01-29T20:53:41.215Z,100795.84
2023-01-29T20:56:08.560Z,100796.34
2023-01-29T20:58:36.264Z,100797.16
2023-01-29T21:01:08.634Z,100787.03
2023-01-29T21:03:35.250Z,100776.69
2023-01-29T21:06:02.531Z,100756.63
2023-01-29T21:08:29.100Z,100754.09
2023-01-29T21:10:55.667Z,100753.13
2023-01-29T21:13:22.334Z,100742.97
2023-01-29T21:15:51.856Z,100744.63
2023-01-29T21:18:18.420Z,100737.81
2023-01-29T21:20:45.071Z,100738.47
2023-01-29T21:23:12.107Z,100733.16
2023-01-29T21:25:38.877Z,100722.19
2023-01-29T21:28:06.016Z,100724.22
2023-01-29T21:30:33.000Z,100719.81
2023-01-29T21:32:59.738Z,100716.50
2023-01-29T21:35:26.168Z,100723.03
2023-01-29T21:37:52.883Z,100729.44
2023-01-29T21:40:21.407Z,100733.13
2023-01-29T21:43:07.191Z,100730.63
2023-01-29T21:45:35.466Z,100729.81
2023-01-29T21:48:02.271Z,100722.63
2023-01-29T21:50:28.891Z,100710.00
2023-01-29T21:52:55.361Z,100708.66
2023-01-29T21:55:21.942Z,100697.81
2023-01-29T21:57:49.279Z,100708.81
2023-01-29T22:00:16.514Z,100699.19
2023-01-29T22:02:43.323Z,100687.50
2023-01-29T22:05:18.647Z,100695.28
2023-01-29T22:07:46.257Z,100698.78
2023-01-29T22:10:13.079Z,100683.00
2023-01-29T22:12:40.054Z,100688.59
2023-01-29T22:15:07.823Z,100682.47
2023-01-29T22:17:35.383Z,100687.50
2023-01-29T22:20:02.228Z,100689.44
2023-01-29T22:22:28.720Z,100699.63
2023-01-29T22:24:56.507Z,100680.28
2023-01-29T22:27:22.981Z,100684.44
2023-01-29T22:29:49.522Z,100688.72
2023-01-29T22:32:16.517Z,100685.25
2023-01-29T22:34:43.102Z,100682.22
2023-01-29T22:37:09.661Z,100669.41
2023-01-29T22:39:36.211Z,100659.75
2023-01-29T22:42:02.817Z,100654.09
2023-01-29T22:44:29.305Z,100666.03
2023-01-29T22:46:55.844Z,100649.41
2023-01-29T22:49:23.263Z,100658.69
2023-01-29T22:52:09.825Z,100669.16
2023-01-29T22:54:41.635Z,100655.66
2023-01-29T22:57:13.212Z,100659.66
2023-01-29T22:59:40.393Z,100644.00
2023-01-29T23:02:08.170Z,100640.34
2023-01-29T23:04:35.130Z,100632.19
2023-01-29T23:07:01.822Z,100634.22
2023-01-29T23:09:28.688Z,100628.03
2023-01-29T23:11:55.231Z,100612.50
2023-01-29T23:14:21.832Z,100630.00
2023-01-29T23:16:48.384Z,100620.72
2023-01-29T23:19:14.859Z,100610.34
2023-01-29T23:21:41.432Z,100610.69
2023-01-29T23:24:08.637Z,100606.03
2023-01-29T23:26:54.285Z,100568.75
2023-01-29T23:29:21.111Z,100590.78
2023-01-29T23:31:47.647Z,100559.69
2023-01-29T23:34:15.184Z,100554.88
2023-01-29T23:36:42.402Z,100539.75
2023-01-29T23:39:09.248Z,100524.50
2023-01-29T23:41:36.002Z,100507.91
2023-01-29T23:44:02.606Z,100491.00
2023-01-29T23:46:29.088Z,100466.88
2023-01-29T23:48:55.586Z,100445.91
2023-01-29T23:51:22.159Z,100457.84
2023-01-29T23:53:48.637Z,100433.69
2023-01-29T23:56:15.266Z,100438.69
2023-01-29T23:58:41.856Z,100439.47
